sensor_id;sensor_type;location;lat;lon;timestamp;pressure;altitude;pressure_sealevel;temperature;humidity
79250;BME280;68679;51.030;7.584;2023-06-10T00:02:10;98833.06;;;17.43;56.74
79250;BME280;68679;51.030;7.584;2023-06-10T00:04:35;98825.56;;;17.45;56.77
79250;BME280;68679;51.030;7.584;2023-06-10T00:07:05;98827.28;;;17.41;57.02
79250;BME280;68679;51.030;7.584;2023-06-10T00:09:39;98824.06;;;17.35;56.59
79250;BME280;68679;51.030;7.584;2023-06-10T00:12:05;98823.75;;;17.37;56.32
79250;BME280;68679;51.030;7.584;2023-06-10T00:14:32;98824.38;;;17.34;56.21
79250;BME280;68679;51.030;7.584;2023-06-10T00:16:57;98819.25;;;17.29;56.82
79250;BME280;68679;51.030;7.584;2023-06-10T00:19:23;98818.69;;;17.23;56.95
79250;BME280;68679;51.030;7.584;2023-06-10T00:21:51;98823.50;;;17.21;56.81
79250;BME280;68679;51.030;7.584;2023-06-10T00:24:17;98824.94;;;17.19;57.13
79250;BME280;68679;51.030;7.584;2023-06-10T00:26:42;98826.81;;;17.18;56.95
79250;BME280;68679;51.030;7.584;2023-06-10T00:29:08;98824.34;;;17.13;57.16
79250;BME280;68679;51.030;7.584;2023-06-10T00:31:37;98824.34;;;17.13;56.99
79250;BME280;68679;51.030;7.584;2023-06-10T00:34:03;98821.53;;;17.09;56.75
79250;BME280;68679;51.030;7.584;2023-06-10T00:36:28;98824.34;;;17.04;57.09
79250;BME280;68679;51.030;7.584;2023-06-10T00:38:54;98832.63;;;17.03;56.67
79250;BME280;68679;51.030;7.584;2023-06-10T00:41:20;98827.22;;;16.99;56.83
79250;BME280;68679;51.030;7.584;2023-06-10T00:43:45;98834.69;;;16.97;56.34
79250;BME280;68679;51.030;7.584;2023-06-10T00:46:11;98825.50;;;16.95;56.83
79250;BME280;68679;51.030;7.584;2023-06-10T00:48:40;98828.31;;;16.89;56.31
79250;BME280;68679;51.030;7.584;2023-06-10T00:51:06;98830.19;;;16.89;56.42
79250;BME280;68679;51.030;7.584;2023-06-10T00:53:39;98832.06;;;16.88;56.46
79250;BME280;68679;51.030;7.584;2023-06-10T00:56:05;98834.56;;;16.85;56.65
79250;BME280;68679;51.030;7.584;2023-06-10T00:58:30;98834.44;;;16.81;56.14
79250;BME280;68679;51.030;7.584;2023-06-10T01:00:56;98837.38;;;16.80;56.51
79250;BME280;68679;51.030;7.584;2023-06-10T01:03:22;98833.84;;;16.76;56.23
79250;BME280;68679;51.030;7.584;2023-06-10T01:05:53;98834.44;;;16.73;56.38
79250;BME280;68679;51.030;7.584;2023-06-10T01:08:40;98834.78;;;16.71;56.16
79250;BME280;68679;51.030;7.584;2023-06-10T01:11:15;98839.09;;;16.67;56.11
79250;BME280;68679;51.030;7.584;2023-06-10T01:13:43;98832.13;;;16.62;56.34
79250;BME280;68679;51.030;7.584;2023-06-10T01:16:09;98833.19;;;16.61;56.19
79250;BME280;68679;51.030;7.584;2023-06-10T01:18:35;98829.94;;;16.56;55.92
79250;BME280;68679;51.030;7.584;2023-06-10T01:21:00;98831.81;;;16.55;55.84
79250;BME280;68679;51.030;7.584;2023-06-10T01:23:25;98836.97;;;16.52;56.08
79250;BME280;68679;51.030;7.584;2023-06-10T01:26:02;98834.66;;;16.50;55.75
79250;BME280;68679;51.030;7.584;2023-06-10T01:28:38;98837.44;;;16.45;55.98
79250;BME280;68679;51.030;7.584;2023-06-10T01:33:52;98840.25;;;16.40;56.23
79250;BME280;68679;51.030;7.584;2023-06-10T01:36:19;98837.16;;;16.38;56.20
79250;BME280;68679;51.030;7.584;2023-06-10T01:38:49;98834.50;;;16.38;55.90
79250;BME280;68679;51.030;7.584;2023-06-10T01:41:19;98842.28;;;16.34;55.92
79250;BME280;68679;51.030;7.584;2023-06-10T01:43:47;98834.34;;;16.34;55.91
79250;BME280;68679;51.030;7.584;2023-06-10T01:46:13;98838.84;;;16.25;56.33
79250;BME280;68679;51.030;7.584;2023-06-10T01:48:39;98843.09;;;16.26;56.27
79250;BME280;68679;51.030;7.584;2023-06-10T01:51:05;98839.94;;;16.24;56.14
79250;BME280;68679;51.030;7.584;2023-06-10T01:53:30;98844.00;;;16.22;56.17
79250;BME280;68679;51.030;7.584;2023-06-10T01:55:55;98840.88;;;16.20;56.23
79250;BME280;68679;51.030;7.584;2023-06-10T01:58:21;98840.75;;;16.16;56.02
79250;BME280;68679;51.030;7.584;2023-06-10T02:00:46;98838.72;;;16.13;56.25
79250;BME280;68679;51.030;7.584;2023-06-10T02:03:11;98834.50;;;16.12;56.32
79250;BME280;68679;51.030;7.584;2023-06-10T02:05:37;98840.44;;;16.09;56.19
79250;BME280;68679;51.030;7.584;2023-06-10T02:08:03;98839.19;;;16.06;56.37
79250;BME280;68679;51.030;7.584;2023-06-10T02:10:28;98840.59;;;16.04;56.31
79250;BME280;68679;51.030;7.584;2023-06-10T02:12:53;98833.59;;;15.99;56.30
79250;BME280;68679;51.030;7.584;2023-06-10T02:15:19;98833.59;;;15.99;56.25
79250;BME280;68679;51.030;7.584;2023-06-10T02:17:44;98839.78;;;15.95;56.34
79250;BME280;68679;51.030;7.584;2023-06-10T02:20:14;98838.25;;;15.94;56.25
79250;BME280;68679;51.030;7.584;2023-06-10T02:22:39;98842.31;;;15.91;56.36
79250;BME280;68679;51.030;7.584;2023-06-10T02:25:05;98841.81;;;15.89;56.20
79250;BME280;68679;51.030;7.584;2023-06-10T02:27:30;98845.09;;;15.86;56.29
79250;BME280;68679;51.030;7.584;2023-06-10T02:29:57;98841.66;;;15.86;56.17
79250;BME280;68679;51.030;7.584;2023-06-10T02:32:22;98846.00;;;15.81;56.27
79250;BME280;68679;51.030;7.584;2023-06-10T02:34:47;98851.94;;;15.78;56.03
79250;BME280;68679;51.030;7.584;2023-06-10T02:37:14;98845.38;;;15.76;56.25
79250;BME280;68679;51.030;7.584;2023-06-10T02:39:39;98848.66;;;15.73;56.39
79250;BME280;68679;51.030;7.584;2023-06-10T02:42:05;98849.75;;;15.72;56.32
79250;BME280;68679;51.030;7.584;2023-06-10T02:44:31;98844.75;;;15.70;56.38
79250;BME280;68679;51.030;7.584;2023-06-10T02:46:56;98849.13;;;15.66;56.33
79250;BME280;68679;51.030;7.584;2023-06-10T02:49:22;98852.03;;;15.65;56.48
79250;BME280;68679;51.030;7.584;2023-06-10T02:51:47;98836.00;;;15.61;56.42
79250;BME280;68679;51.030;7.584;2023-06-10T02:54:12;98840.03;;;15.59;56.56
79250;BME280;68679;51.030;7.584;2023-06-10T02:56:37;98848.16;;;15.62;56.49
79250;BME280;68679;51.030;7.584;2023-06-10T02:59:06;98845.94;;;15.55;56.45
79250;BME280;68679;51.030;7.584;2023-06-10T03:01:33;98840.81;;;15.50;56.40
79250;BME280;68679;51.030;7.584;2023-06-10T03:04:00;98847.31;;;15.53;56.35
79250;BME280;68679;51.030;7.584;2023-06-10T03:06:25;98841.44;;;15.47;56.30
79250;BME280;68679;51.030;7.584;2023-06-10T03:08:51;98844.69;;;15.44;56.42
79250;BME280;68679;51.030;7.584;2023-06-10T03:11:16;98841.84;;;15.41;56.57
79250;BME280;68679;51.030;7.584;2023-06-10T03:13:42;98837.66;;;15.40;56.66
79250;BME280;68679;51.030;7.584;2023-06-10T03:16:07;98845.13;;;15.38;56.51
79250;BME280;68679;51.030;7.584;2023-06-10T03:18:32;98838.59;;;15.35;56.49
79250;BME280;68679;51.030;7.584;2023-06-10T03:20:58;98842.63;;;15.33;56.60
79250;BME280;68679;51.030;7.584;2023-06-10T03:23:23;98844.81;;;15.31;56.64
79250;BME280;68679;51.030;7.584;2023-06-10T03:25:49;98843.25;;;15.29;56.63
79250;BME280;68679;51.030;7.584;2023-06-10T03:28:14;98844.47;;;15.23;56.70
79250;BME280;68679;51.030;7.584;2023-06-10T03:30:39;98846.81;;;15.25;56.48
79250;BME280;68679;51.030;7.584;2023-06-10T03:33:05;98845.84;;;15.21;56.55
79250;BME280;68679;51.030;7.584;2023-06-10T03:35:30;98846.16;;;15.19;56.63
79250;BME280;68679;51.030;7.584;2023-06-10T03:37:57;98849.41;;;15.16;56.69
79250;BME280;68679;51.030;7.584;2023-06-10T03:40:22;98847.84;;;15.15;56.66
79250;BME280;68679;51.030;7.584;2023-06-10T03:42:48;98851.88;;;15.13;56.82
79250;BME280;68679;51.030;7.584;2023-06-10T03:45:13;98845.06;;;15.12;56.61
79250;BME280;68679;51.030;7.584;2023-06-10T03:47:38;98850.94;;;15.09;56.82
79250;BME280;68679;51.030;7.584;2023-06-10T03:50:06;98847.97;;;15.10;56.76
79250;BME280;68679;51.030;7.584;2023-06-10T03:52:32;98852.78;;;15.08;56.79
79250;BME280;68679;51.030;7.584;2023-06-10T03:54:57;98853.56;;;15.09;56.88
79250;BME280;68679;51.030;7.584;2023-06-10T03:57:22;98849.19;;;15.04;56.85
79250;BME280;68679;51.030;7.584;2023-06-10T03:59:48;98852.91;;;15.03;56.85
79250;BME280;68679;51.030;7.584;2023-06-10T04:02:13;98851.06;;;15.03;56.82
79250;BME280;68679;51.030;7.584;2023-06-10T04:04:38;98848.72;;;15.02;57.03
79250;BME280;68679;51.030;7.584;2023-06-10T04:07:04;98849.81;;;15.01;56.92
79250;BME280;68679;51.030;7.584;2023-06-10T04:09:31;98849.50;;;15.02;56.86
79250;BME280;68679;51.030;7.584;2023-06-10T04:11:56;98850.28;;;15.03;56.95
79250;BME280;68679;51.030;7.584;2023-06-10T04:14:22;98861.47;;;15.00;56.90
79250;BME280;68679;51.030;7.584;2023-06-10T04:16:47;98849.81;;;15.01;56.92
79250;BME280;68679;51.030;7.584;2023-06-10T04:19:12;98852.00;;;14.99;57.08
79250;BME280;68679;51.030;7.584;2023-06-10T04:21:38;98863.16;;;14.96;57.44
79250;BME280;68679;51.030;7.584;2023-06-10T04:24:03;98862.06;;;14.97;57.08
79250;BME280;68679;51.030;7.584;2023-06-10T04:26:28;98866.25;;;14.98;57.05
79250;BME280;68679;51.030;7.584;2023-06-10T04:28:54;98867.66;;;14.95;57.16
79250;BME280;68679;51.030;7.584;2023-06-10T04:31:19;98863.59;;;14.98;57.42
79250;BME280;68679;51.030;7.584;2023-06-10T04:33:45;98865.47;;;14.97;57.43
79250;BME280;68679;51.030;7.584;2023-06-10T04:36:10;98864.69;;;14.97;57.66
79250;BME280;68679;51.030;7.584;2023-06-10T04:38:36;98866.25;;;14.98;57.72
79250;BME280;68679;51.030;7.584;2023-06-10T04:41:01;98866.75;;;15.00;57.65
79250;BME280;68679;51.030;7.584;2023-06-10T04:43:27;98867.53;;;15.00;58.69
79250;BME280;68679;51.030;7.584;2023-06-10T04:45:54;98869.84;;;15.02;58.49
79250;BME280;68679;51.030;7.584;2023-06-10T04:48:19;98866.91;;;15.03;58.63
79250;BME280;68679;51.030;7.584;2023-06-10T04:50:44;98870.63;;;15.02;59.49
79250;BME280;68679;51.030;7.584;2023-06-10T04:53:09;98876.41;;;15.05;59.71
79250;BME280;68679;51.030;7.584;2023-06-10T04:55:35;98880.09;;;15.03;60.13
79250;BME280;68679;51.030;7.584;2023-06-10T04:58:01;98874.53;;;15.05;59.95
79250;BME280;68679;51.030;7.584;2023-06-10T05:00:27;98869.25;;;15.05;60.41
79250;BME280;68679;51.030;7.584;2023-06-10T05:02:52;98867.53;;;15.09;59.73
79250;BME280;68679;51.030;7.584;2023-06-10T05:05:18;98865.41;;;15.11;60.40
79250;BME280;68679;51.030;7.584;2023-06-10T05:07:43;98860.13;;;15.11;60.78
79250;BME280;68679;51.030;7.584;2023-06-10T05:10:09;98868.69;;;15.17;59.94
79250;BME280;68679;51.030;7.584;2023-06-10T05:12:34;98866.03;;;15.17;60.23
79250;BME280;68679;51.030;7.584;2023-06-10T05:15:00;98871.03;;;15.18;60.35
79250;BME280;68679;51.030;7.584;2023-06-10T05:17:25;98866.66;;;15.22;60.80
79250;BME280;68679;51.030;7.584;2023-06-10T05:19:51;98868.41;;;15.27;60.62
79250;BME280;68679;51.030;7.584;2023-06-10T05:22:16;98864.38;;;15.29;60.31
79250;BME280;68679;51.030;7.584;2023-06-10T05:24:45;98871.69;;;15.33;60.53
79250;BME280;68679;51.030;7.584;2023-06-10T05:27:11;98869.50;;;15.35;60.24
79250;BME280;68679;51.030;7.584;2023-06-10T05:29:37;98872.63;;;15.37;60.57
79250;BME280;68679;51.030;7.584;2023-06-10T05:32:03;98873.56;;;15.41;60.45
79250;BME280;68679;51.030;7.584;2023-06-10T05:34:29;98870.31;;;15.44;60.33
79250;BME280;68679;51.030;7.584;2023-06-10T05:36:55;98869.41;;;15.48;60.27
79250;BME280;68679;51.030;7.584;2023-06-10T05:39:20;98872.19;;;15.52;60.89
79250;BME280;68679;51.030;7.584;2023-06-10T05:41:45;98870.06;;;15.54;60.33
79250;BME280;68679;51.030;7.584;2023-06-10T05:44:11;98871.28;;;15.56;60.31
79250;BME280;68679;51.030;7.584;2023-06-10T05:46:36;98877.53;;;15.61;60.08
79250;BME280;68679;51.030;7.584;2023-06-10T05:49:01;98875.38;;;15.63;60.20
79250;BME280;68679;51.030;7.584;2023-06-10T05:51:27;98882.06;;;15.69;60.13
79250;BME280;68679;51.030;7.584;2023-06-10T05:53:54;98882.72;;;15.74;59.73
79250;BME280;68679;51.030;7.584;2023-06-10T05:56:19;98878.38;;;15.78;59.57
79250;BME280;68679;51.030;7.584;2023-06-10T05:58:46;98874.19;;;15.86;59.00
79250;BME280;68679;51.030;7.584;2023-06-10T06:01:11;98882.75;;;15.92;59.80
79250;BME280;68679;51.030;7.584;2023-06-10T06:03:37;98877.75;;;15.99;59.49
79250;BME280;68679;51.030;7.584;2023-06-10T06:06:02;98870.31;;;16.09;59.55
79250;BME280;68679;51.030;7.584;2023-06-10T06:08:29;98869.53;;;16.18;59.84
79250;BME280;68679;51.030;7.584;2023-06-10T06:10:54;98877.00;;;16.24;60.44
79250;BME280;68679;51.030;7.584;2023-06-10T06:13:19;98877.28;;;16.31;60.26
79250;BME280;68679;51.030;7.584;2023-06-10T06:15:45;98873.88;;;16.40;59.84
79250;BME280;68679;51.030;7.584;2023-06-10T06:18:10;98877.28;;;16.49;59.57
79250;BME280;68679;51.030;7.584;2023-06-10T06:20:35;98876.19;;;16.58;58.38
79250;BME280;68679;51.030;7.584;2023-06-10T06:23:00;98881.66;;;16.71;57.66
79250;BME280;68679;51.030;7.584;2023-06-10T06:25:26;98877.59;;;16.82;57.19
79250;BME280;68679;51.030;7.584;2023-06-10T06:27:51;98868.50;;;16.92;56.77
79250;BME280;68679;51.030;7.584;2023-06-10T06:30:17;98875.78;;;17.03;56.31
79250;BME280;68679;51.030;7.584;2023-06-10T06:32:42;98877.66;;;17.11;55.36
79250;BME280;68679;51.030;7.584;2023-06-10T06:35:08;98876.84;;;17.20;56.08
79250;BME280;68679;51.030;7.584;2023-06-10T06:37:33;98880.53;;;17.27;55.50
79250;BME280;68679;51.030;7.584;2023-06-10T06:39:59;98871.31;;;17.33;54.95
79250;BME280;68679;51.030;7.584;2023-06-10T06:42:24;98882.97;;;17.41;55.73
79250;BME280;68679;51.030;7.584;2023-06-10T06:44:50;98876.38;;;17.47;55.24
79250;BME280;68679;51.030;7.584;2023-06-10T06:47:15;98879.34;;;17.54;54.87
79250;BME280;68679;51.030;7.584;2023-06-10T06:49:42;98881.47;;;17.61;54.55
79250;BME280;68679;51.030;7.584;2023-06-10T06:52:08;98880.97;;;17.67;54.64
79250;BME280;68679;51.030;7.584;2023-06-10T06:54:33;98877.84;;;17.74;54.43
79250;BME280;68679;51.030;7.584;2023-06-10T06:56:58;98881.06;;;17.80;53.52
79250;BME280;68679;51.030;7.584;2023-06-10T06:59:24;98887.41;;;17.87;54.36
79250;BME280;68679;51.030;7.584;2023-06-10T07:01:50;98877.06;;;17.94;53.63
79250;BME280;68679;51.030;7.584;2023-06-10T07:04:16;98887.31;;;18.05;53.46
79250;BME280;68679;51.030;7.584;2023-06-10T07:06:41;98886.91;;;18.15;53.25
79250;BME280;68679;51.030;7.584;2023-06-10T07:09:07;98880.13;;;18.26;53.13
79250;BME280;68679;51.030;7.584;2023-06-10T07:11:36;98889.22;;;18.37;52.48
79250;BME280;68679;51.030;7.584;2023-06-10T07:14:01;98888.50;;;18.49;52.60
79250;BME280;68679;51.030;7.584;2023-06-10T07:16:26;98892.28;;;18.60;51.79
79250;BME280;68679;51.030;7.584;2023-06-10T07:18:54;98885.94;;;18.73;51.59
79250;BME280;68679;51.030;7.584;2023-06-10T07:21:20;98889.75;;;18.85;50.96
79250;BME280;68679;51.030;7.584;2023-06-10T07:23:46;98880.25;;;18.96;50.94
79250;BME280;68679;51.030;7.584;2023-06-10T07:26:11;98879.81;;;19.06;50.20
79250;BME280;68679;51.030;7.584;2023-06-10T07:28:39;98882.03;;;19.16;50.13
79250;BME280;68679;51.030;7.584;2023-06-10T07:31:04;98881.59;;;19.26;49.71
79250;BME280;68679;51.030;7.584;2023-06-10T07:33:29;98883.84;;;19.37;49.35
79250;BME280;68679;51.030;7.584;2023-06-10T07:35:55;98879.16;;;19.46;49.08
79250;BME280;68679;51.030;7.584;2023-06-10T07:38:20;98870.41;;;19.58;49.06
79250;BME280;68679;51.030;7.584;2023-06-10T07:40:45;98879.84;;;19.67;48.95
79250;BME280;68679;51.030;7.584;2023-06-10T07:43:11;98882.84;;;19.78;48.91
79250;BME280;68679;51.030;7.584;2023-06-10T07:45:36;98880.03;;;19.87;48.74
79250;BME280;68679;51.030;7.584;2023-06-10T07:48:01;98882.47;;;19.92;49.25
79250;BME280;68679;51.030;7.584;2023-06-10T07:50:26;98893.09;;;20.04;48.77
79250;BME280;68679;51.030;7.584;2023-06-10T07:52:52;98877.75;;;20.13;48.32
79250;BME280;68679;51.030;7.584;2023-06-10T07:55:17;98889.38;;;20.21;48.39
79250;BME280;68679;51.030;7.584;2023-06-10T07:57:42;98882.00;;;20.30;48.77
79250;BME280;68679;51.030;7.584;2023-06-10T08:00:09;98892.53;;;20.39;48.96
79250;BME280;68679;51.030;7.584;2023-06-10T08:02:34;98887.72;;;20.44;48.82
79250;BME280;68679;51.030;7.584;2023-06-10T08:05:00;98894.91;;;20.56;47.94
79250;BME280;68679;51.030;7.584;2023-06-10T08:07:25;98890.88;;;20.62;48.25
79250;BME280;68679;51.030;7.584;2023-06-10T08:09:50;98894.44;;;20.66;49.02
79250;BME280;68679;51.030;7.584;2023-06-10T08:12:16;98890.41;;;20.72;49.22
79250;BME280;68679;51.030;7.584;2023-06-10T08:14:41;98890.22;;;20.81;49.46
79250;BME280;68679;51.030;7.584;2023-06-10T08:17:06;98891.56;;;20.87;48.67
79250;BME280;68679;51.030;7.584;2023-06-10T08:19:32;98893.69;;;20.97;49.19
79250;BME280;68679;51.030;7.584;2023-06-10T08:21:57;98894.06;;;21.11;48.89
79250;BME280;68679;51.030;7.584;2023-06-10T08:24:22;98895.84;;;21.23;48.91
79250;BME280;68679;51.030;7.584;2023-06-10T08:26:48;98898.38;;;21.32;48.91
79250;BME280;68679;51.030;7.584;2023-06-10T08:29:13;98900.53;;;21.42;48.35
79250;BME280;68679;51.030;7.584;2023-06-10T08:31:44;98901.63;;;21.57;49.76
79250;BME280;68679;51.030;7.584;2023-06-10T08:34:10;98900.31;;;21.66;48.87
79250;BME280;68679;51.030;7.584;2023-06-10T08:36:35;98897.09;;;21.77;48.56
79250;BME280;68679;51.030;7.584;2023-06-10T08:39:01;98890.09;;;21.88;48.38
79250;BME280;68679;51.030;7.584;2023-06-10T08:41:28;98892.22;;;21.98;48.63
79250;BME280;68679;51.030;7.584;2023-06-10T08:44:17;98892.44;;;22.09;48.27
79250;BME280;68679;51.030;7.584;2023-06-10T08:46:46;98888.06;;;22.16;48.39
79250;BME280;68679;51.030;7.584;2023-06-10T08:49:17;98893.66;;;22.31;48.49
79250;BME280;68679;51.030;7.584;2023-06-10T08:51:43;98895.66;;;22.34;48.77
79250;BME280;68679;51.030;7.584;2023-06-10T08:54:17;98889.56;;;22.56;48.95
79250;BME280;68679;51.030;7.584;2023-06-10T08:56:49;98889.63;;;22.60;48.80
79250;BME280;68679;51.030;7.584;2023-06-10T08:59:16;98890.00;;;22.81;48.36
79250;BME280;68679;51.030;7.584;2023-06-10T09:01:42;98892.38;;;22.86;48.66
79250;BME280;68679;51.030;7.584;2023-06-10T09:04:08;98884.88;;;22.92;47.85
79250;BME280;68679;51.030;7.584;2023-06-10T09:06:34;98886.59;;;23.04;47.71
79250;BME280;68679;51.030;7.584;2023-06-10T09:09:01;98883.63;;;23.09;48.37
79250;BME280;68679;51.030;7.584;2023-06-10T09:11:27;98887.25;;;23.20;48.17
79250;BME280;68679;51.030;7.584;2023-06-10T09:13:52;98876.66;;;23.27;47.93
79250;BME280;68679;51.030;7.584;2023-06-10T09:16:17;98882.84;;;23.31;47.95
79250;BME280;68679;51.030;7.584;2023-06-10T09:18:43;98876.25;;;23.25;47.99
79250;BME280;68679;51.030;7.584;2023-06-10T09:21:08;98873.88;;;23.46;47.44
79250;BME280;68679;51.030;7.584;2023-06-10T09:23:34;98875.88;;;23.53;46.88
79250;BME280;68679;51.030;7.584;2023-06-10T09:26:00;98877.03;;;23.52;47.04
79250;BME280;68679;51.030;7.584;2023-06-10T09:28:25;98867.75;;;23.46;47.16
79250;BME280;68679;51.030;7.584;2023-06-10T09:31:02;98874.53;;;23.63;47.25
79250;BME280;68679;51.030;7.584;2023-06-10T09:33:28;98871.56;;;23.71;46.96
79250;BME280;68679;51.030;7.584;2023-06-10T09:35:54;98866.28;;;23.75;47.08
79250;BME280;68679;51.030;7.584;2023-06-10T09:38:22;98872.94;;;23.88;46.94
79250;BME280;68679;51.030;7.584;2023-06-10T09:40:53;98859.63;;;23.92;46.60
79250;BME280;68679;51.030;7.584;2023-06-10T09:43:19;98869.59;;;23.95;46.93
79250;BME280;68679;51.030;7.584;2023-06-10T09:45:48;98860.09;;;24.01;46.53
79250;BME280;68679;51.030;7.584;2023-06-10T09:48:13;98853.00;;;24.16;46.81
79250;BME280;68679;51.030;7.584;2023-06-10T09:50:42;98855.41;;;24.24;46.95
79250;BME280;68679;51.030;7.584;2023-06-10T09:53:09;98856.97;;;24.29;46.44
79250;BME280;68679;51.030;7.584;2023-06-10T09:55:37;98859.38;;;24.38;46.43
79250;BME280;68679;51.030;7.584;2023-06-10T09:58:03;98854.59;;;24.54;46.24
79250;BME280;68679;51.030;7.584;2023-06-10T10:00:31;98855.41;;;24.58;46.21
79250;BME280;68679;51.030;7.584;2023-06-10T10:02:57;98857.72;;;24.59;46.51
79250;BME280;68679;51.030;7.584;2023-06-10T10:05:22;98858.91;;;24.66;46.80
79250;BME280;68679;51.030;7.584;2023-06-10T10:07:48;98857.09;;;24.77;45.93
79250;BME280;68679;51.030;7.584;2023-06-10T10:10:15;98859.50;;;24.89;46.58
79250;BME280;68679;51.030;7.584;2023-06-10T10:12:41;98859.56;;;24.96;46.08
79250;BME280;68679;51.030;7.584;2023-06-10T10:15:08;98866.81;;;24.92;45.90
79250;BME280;68679;51.030;7.584;2023-06-10T10:17:34;98856.94;;;25.00;45.86
79250;BME280;68679;51.030;7.584;2023-06-10T10:20:04;98855.34;;;24.99;45.58
79250;BME280;68679;51.030;7.584;2023-06-10T10:22:37;98860.75;;;25.02;45.42
79250;BME280;68679;51.030;7.584;2023-06-10T10:25:10;98853.31;;;25.26;44.65
79250;BME280;68679;51.030;7.584;2023-06-10T10:27:40;98851.81;;;25.32;44.39
79250;BME280;68679;51.030;7.584;2023-06-10T10:30:09;98858.28;;;25.27;44.77
79250;BME280;68679;51.030;7.584;2023-06-10T10:35:26;98859.16;;;25.42;43.99
79250;BME280;68679;51.030;7.584;2023-06-10T10:37:52;98848.84;;;25.51;44.03
79250;BME280;68679;51.030;7.584;2023-06-10T10:40:20;98856.53;;;25.49;43.70
79250;BME280;68679;51.030;7.584;2023-06-10T10:42:48;98863.03;;;25.48;43.16
79250;BME280;68679;51.030;7.584;2023-06-10T10:45:14;98846.97;;;25.55;43.28
79250;BME280;68679;51.030;7.584;2023-06-10T10:47:41;98854.81;;;25.82;42.96
79250;BME280;68679;51.030;7.584;2023-06-10T10:50:18;98850.25;;;25.97;42.37
79250;BME280;68679;51.030;7.584;2023-06-10T10:53:05;98854.91;;;26.07;41.75
79250;BME280;68679;51.030;7.584;2023-06-10T10:55:31;98844.06;;;25.89;42.29
79250;BME280;68679;51.030;7.584;2023-06-10T10:57:58;98844.91;;;26.07;41.91
79250;BME280;68679;51.030;7.584;2023-06-10T11:00:28;98835.75;;;26.15;41.91
79250;BME280;68679;51.030;7.584;2023-06-10T11:02:57;98840.00;;;26.27;41.73
79250;BME280;68679;51.030;7.584;2023-06-10T11:05:38;98831.63;;;26.46;41.37
79250;BME280;68679;51.030;7.584;2023-06-10T11:08:04;98830.00;;;26.38;41.34
79250;BME280;68679;51.030;7.584;2023-06-10T11:10:35;98835.47;;;26.53;41.39
79250;BME280;68679;51.030;7.584;2023-06-10T11:13:13;98837.38;;;26.63;41.20
79250;BME280;68679;51.030;7.584;2023-06-10T11:15:43;98832.00;;;26.63;41.37
79250;BME280;68679;51.030;7.584;2023-06-10T11:18:28;98831.25;;;26.59;40.43
79250;BME280;68679;51.030;7.584;2023-06-10T11:21:02;98834.31;;;26.54;40.46
79250;BME280;68679;51.030;7.584;2023-06-10T11:26:29;98832.00;;;26.98;39.90
79250;BME280;68679;51.030;7.584;2023-06-10T11:31:27;98820.50;;;26.94;39.83
79250;BME280;68679;51.030;7.584;2023-06-10T11:33:57;98819.69;;;27.05;39.61
79250;BME280;68679;51.030;7.584;2023-06-10T11:36:26;98813.56;;;27.18;39.43
79250;BME280;68679;51.030;7.584;2023-06-10T11:38:57;98823.16;;;27.26;39.07
79250;BME280;68679;51.030;7.584;2023-06-10T11:41:26;98823.47;;;27.57;38.62
79250;BME280;68679;51.030;7.584;2023-06-10T11:43:53;98828.91;;;27.36;38.92
79250;BME280;68679;51.030;7.584;2023-06-10T11:46:21;98824.72;;;27.17;38.83
79250;BME280;68679;51.030;7.584;2023-06-10T11:48:57;98815.50;;;27.07;39.17
79250;BME280;68679;51.030;7.584;2023-06-10T11:51:25;98802.72;;;27.47;38.25
79250;BME280;68679;51.030;7.584;2023-06-10T11:53:52;98810.78;;;27.54;38.49
79250;BME280;68679;51.030;7.584;2023-06-10T11:56:28;98823.88;;;27.56;38.12
79250;BME280;68679;51.030;7.584;2023-06-10T11:58:55;98815.75;;;27.63;38.03
79250;BME280;68679;51.030;7.584;2023-06-10T12:01:25;98817.28;;;27.60;38.13
79250;BME280;68679;51.030;7.584;2023-06-10T12:04:02;98803.78;;;27.82;37.96
79250;BME280;68679;51.030;7.584;2023-06-10T12:06:38;98814.63;;;27.57;37.88
79250;BME280;68679;51.030;7.584;2023-06-10T12:09:04;98815.41;;;27.57;37.25
79250;BME280;68679;51.030;7.584;2023-06-10T12:11:30;98813.44;;;27.65;37.24
79250;BME280;68679;51.030;7.584;2023-06-10T12:13:55;98816.53;;;27.60;37.97
79250;BME280;68679;51.030;7.584;2023-06-10T12:16:21;98816.59;;;27.49;37.67
79250;BME280;68679;51.030;7.584;2023-06-10T12:18:46;98803.47;;;27.47;37.70
79250;BME280;68679;51.030;7.584;2023-06-10T12:21:16;98814.63;;;27.57;36.90
79250;BME280;68679;51.030;7.584;2023-06-10T12:24:00;98806.53;;;27.53;37.00
79250;BME280;68679;51.030;7.584;2023-06-10T12:26:37;98810.34;;;27.66;37.04
79250;BME280;68679;51.030;7.584;2023-06-10T12:29:19;98808.06;;;27.65;36.77
79250;BME280;68679;51.030;7.584;2023-06-10T12:31:52;98808.06;;;27.54;37.04
79250;BME280;68679;51.030;7.584;2023-06-10T12:34:17;98806.53;;;27.57;37.53
79250;BME280;68679;51.030;7.584;2023-06-10T12:36:48;98812.69;;;27.53;36.64
79250;BME280;68679;51.030;7.584;2023-06-10T12:39:13;98810.06;;;27.39;36.32
79250;BME280;68679;51.030;7.584;2023-06-10T12:41:39;98806.56;;;27.46;36.82
79250;BME280;68679;51.030;7.584;2023-06-10T12:44:05;98805.81;;;27.45;37.10
79250;BME280;68679;51.030;7.584;2023-06-10T12:46:37;98806.53;;;27.53;36.52
79250;BME280;68679;51.030;7.584;2023-06-10T12:49:02;98807.31;;;27.53;37.00
79250;BME280;68679;51.030;7.584;2023-06-10T12:51:27;98809.63;;;27.55;36.82
79250;BME280;68679;51.030;7.584;2023-06-10T12:53:52;98804.63;;;27.57;36.90
79250;BME280;68679;51.030;7.584;2023-06-10T12:56:18;98817.38;;;27.39;37.97
79250;BME280;68679;51.030;7.584;2023-06-10T12:58:43;98810.03;;;27.46;36.05
79250;BME280;68679;51.030;7.584;2023-06-10T13:01:08;98808.09;;;27.47;36.69
79250;BME280;68679;51.030;7.584;2023-06-10T13:03:33;98799.66;;;27.48;36.89
79250;BME280;68679;51.030;7.584;2023-06-10T13:05:59;98803.88;;;27.46;36.67
79250;BME280;68679;51.030;7.584;2023-06-10T13:08:24;98800.41;;;27.49;37.22
79250;BME280;68679;51.030;7.584;2023-06-10T13:10:50;98796.59;;;27.43;37.58